ADDS METAR Data INFO
IDs: Format: Raw Decoded Include TAF

Data at: 1923 UTC 19 Jul 2018

KVGT 191853Z AUTO VRB06KT 10SM CLR 38/15 A2996 RMK AO2 SLP126 T03830150 $
KVGT 191753Z AUTO 14005KT 10SM CLR 37/16 A2998 RMK AO2 SLP135 T03720161 10378 20311 $
KVGT 191553Z VRB04KT 10SM CLR 34/17 A2999 RMK AO2 SLP139 T03440172
KVGT 191453Z 12007KT 10SM CLR 33/17 A2998 RMK AO2 SLP136 T03280172 53016
KVGT 191353Z 06006KT 10SM CLR 32/18 A2997 RMK AO2 SLP130 T03170178
KVGT 191253Z AUTO 05004KT 10SM CLR 31/17 A2995 RMK AO2 SLP124 T03110167
KVGT 191153Z AUTO 06004KT 10SM CLR 31/17 A2993 RMK AO2 SLP119 T03110167 10361 20311 53005
KVGT 191053Z AUTO 09006KT 10SM CLR 32/16 A2992 RMK AO2 SLP115 T03170161
KVGT 190953Z AUTO 12007KT 10SM CLR 32/17 A2992 RMK AO2 SLP114 T03220167
KVGT 190853Z AUTO 15008KT 10SM CLR 34/16 A2992 RMK AO2 SLP112 T03390156 51006
KVGT 190753Z AUTO 19004KT 10SM CLR 35/15 A2992 RMK AO2 SLP112 T03500150 404110311
KVGT 190653Z AUTO 18008KT 10SM CLR 36/15 A2991 RMK AO2 SLP110 T03560150
KVGT 190453Z AUTO 19011KT 10SM CLR 37/16 A2990 RMK AO2 SLP110 T03670156
KVGT 190353Z 18009KT 10SM CLR 38/14 A2989 RMK AO2 SLP105 T03830144
KVGT 190253Z 21004KT 10SM CLR 39/14 A2988 RMK AO2 LTG DSNT S AND SW SLP102 T03940139 53002
KVGT 190153Z 23008KT 10SM CLR 40/14 A2987 RMK AO2 SLP099 T04000139
KVGT 190053Z 14010G17KT 10SM CLR 41/14 A2987 RMK AO2 LTG DSNT NE AND SW AND NW SLP097 T04060144
KVGT 182353Z 17010KT 10SM CLR 41/14 A2988 RMK AO2 LTG DSNT N AND NW SLP100 T04110144 10411 20361 56024
KVGT 182253Z 12010G18KT 10SM CLR 40/16 A2990 RMK AO2 SLP107 T04000156
KVGT 182153Z 14010G18KT 10SM CLR 40/16 A2992 RMK AO2 LTG DSNT S SLP115 T04000156
KVGT 182053Z 12011G15KT 10SM CLR 40/16 A2995 RMK AO2 SLP126 T04000161 58021
KVGT 181953Z AUTO 12012G17KT 10SM CLR 39/17 A2998 RMK AO2 SLP137 T03890172
KVGT 181853Z AUTO 05007KT 10SM CLR 37/17 A3000 RMK AO2 SLP145 T03720172
KVGT 181753Z AUTO 14005KT 10SM CLR 36/17 A3002 RMK AO2 SLP151 T03610172 10361 20311 58000
KVGT 181653Z AUTO 00000KT 10SM CLR 34/18 A3002 RMK AO2 SLP150 T03390178
KVGT 181553Z AUTO 13005KT 10SM CLR 33/18 A3003 RMK AO2 SLP151 T03280178
KVGT 181453Z AUTO 10006KT 10SM CLR 32/18 A3002 RMK AO2 SLP148 T03220178 51018
KVGT 181353Z AUTO 12011KT 10SM CLR 31/18 A3000 RMK AO2 SLP142 T03110178
KVGT 181253Z AUTO 11008KT 10SM CLR 32/17 A2999 RMK AO2 SLP136 T03170167
KVGT 181153Z AUTO 13009KT 10SM FEW075 32/16 A2996 RMK AO2 SLP128 T03220161 10339 20317 55003
KVGT 181053Z AUTO 15008KT 10SM CLR 32/14 A2994 RMK AO2 SLP120 T03220144
KVGT 180953Z AUTO 32009KT 10SM CLR 33/16 A2993 RMK AO2 SLP118 T03330156
KVGT 180853Z AUTO 26008KT 10SM CLR 32/16 A2997 RMK AO2 SLP132 T03220156 58002
KVGT 180753Z AUTO 00000KT 10SM CLR 32/16 A3001 RMK AO2 PK WND 07027/0654 SLP145 T03220156 404280306